createdAt,value
2023-12-13T00:01:44.437Z,5.70
2023-12-13T00:04:13.029Z,5.70
2023-12-13T00:06:40.758Z,5.70
2023-12-13T00:09:12.539Z,5.70
2023-12-13T00:11:40.374Z,5.80
2023-12-13T00:14:09.941Z,5.80
2023-12-13T00:16:40.968Z,5.70
2023-12-13T00:19:09.230Z,5.70
2023-12-13T00:21:37.027Z,5.70
2023-12-13T00:24:05.989Z,5.70
2023-12-13T00:26:33.772Z,5.70
2023-12-13T00:29:01.812Z,5.60
2023-12-13T00:31:29.575Z,5.60
2023-12-13T00:33:57.696Z,5.60
2023-12-13T00:36:25.533Z,5.50
2023-12-13T00:38:53.628Z,5.50
2023-12-13T00:41:23.307Z,5.40
2023-12-13T00:43:51.448Z,5.40
2023-12-13T00:46:21.855Z,5.40
2023-12-13T00:48:50.805Z,5.40
2023-12-13T00:51:23.395Z,5.50
2023-12-13T00:53:51.651Z,5.50
2023-12-13T00:56:19.419Z,5.40
2023-12-13T00:58:49.103Z,5.50
2023-12-13T01:01:18.230Z,5.50
2023-12-13T01:03:46.591Z,5.50
2023-12-13T01:06:14.459Z,5.50
2023-12-13T01:08:42.449Z,5.50
2023-12-13T01:11:11.362Z,5.40
2023-12-13T01:13:40.470Z,5.30
2023-12-13T01:16:08.860Z,5.10
2023-12-13T01:18:37.274Z,5.00
2023-12-13T01:21:05.421Z,4.70
2023-12-13T01:23:34.035Z,4.50
2023-12-13T01:26:01.649Z,4.40
2023-12-13T01:28:29.748Z,4.30
2023-12-13T01:30:57.518Z,4.20
2023-12-13T01:33:25.594Z,4.20
2023-12-13T01:35:53.347Z,4.10
2023-12-13T01:38:21.508Z,4.00
2023-12-13T01:41:10.878Z,4.00
2023-12-13T01:43:41.505Z,3.90
2023-12-13T01:46:09.666Z,3.90
2023-12-13T01:48:38.137Z,3.90
2023-12-13T01:51:06.103Z,3.90
2023-12-13T01:53:35.929Z,3.80
2023-12-13T01:56:08.667Z,3.70
2023-12-13T01:58:40.886Z,3.70
2023-12-13T02:01:09.964Z,3.70
2023-12-13T02:03:43.494Z,3.70
2023-12-13T02:06:11.324Z,3.60
2023-12-13T02:08:40.232Z,3.60
2023-12-13T02:11:08.116Z,3.60
2023-12-13T02:13:36.432Z,3.60
2023-12-13T02:16:04.482Z,3.70
2023-12-13T02:18:32.692Z,3.70
2023-12-13T02:21:00.387Z,3.80
2023-12-13T02:23:28.500Z,3.90
2023-12-13T02:26:01.612Z,3.90
2023-12-13T02:28:30.774Z,4.00
2023-12-13T02:31:00.170Z,4.00
2023-12-13T02:33:29.695Z,4.10
2023-12-13T02:36:00.287Z,4.10
2023-12-13T02:38:28.191Z,4.20
2023-12-13T02:40:56.390Z,4.20
2023-12-13T02:43:24.385Z,4.20
2023-12-13T02:45:52.860Z,4.20
2023-12-13T02:48:20.754Z,4.20
2023-12-13T02:50:49.992Z,4.20
2023-12-13T02:53:17.752Z,4.10
2023-12-13T02:55:46.103Z,4.10
2023-12-13T02:58:13.906Z,4.20
2023-12-13T03:00:42.748Z,4.20
2023-12-13T03:03:10.498Z,4.10
2023-12-13T03:05:38.719Z,4.00
2023-12-13T03:08:06.446Z,3.90
2023-12-13T03:10:34.541Z,3.90
2023-12-13T03:13:02.386Z,3.90
2023-12-13T03:15:30.464Z,3.90
2023-12-13T03:17:58.143Z,3.90
2023-12-13T03:20:26.404Z,3.80
2023-12-13T03:22:54.228Z,3.80
2023-12-13T03:25:22.401Z,3.80
2023-12-13T03:27:50.007Z,3.80
2023-12-13T03:30:18.237Z,3.90
2023-12-13T03:32:47.550Z,3.90
2023-12-13T03:35:17.188Z,3.90
2023-12-13T03:37:44.779Z,3.90
2023-12-13T03:40:13.597Z,4.00
2023-12-13T03:42:41.402Z,3.90
2023-12-13T03:45:09.876Z,4.00
2023-12-13T03:47:38.132Z,4.00
2023-12-13T03:50:07.231Z,4.00
2023-12-13T03:52:35.081Z,4.00
2023-12-13T03:55:03.513Z,4.10
2023-12-13T03:57:31.292Z,4.10
2023-12-13T03:59:59.992Z,4.10
2023-12-13T04:02:27.959Z,4.10
2023-12-13T04:04:55.897Z,4.10
2023-12-13T04:07:23.740Z,4.00
2023-12-13T04:09:52.146Z,4.10
2023-12-13T04:12:19.881Z,4.00
2023-12-13T04:14:47.955Z,4.00
2023-12-13T04:17:15.784Z,4.00
2023-12-13T04:19:43.832Z,4.00
2023-12-13T04:22:11.646Z,4.00
2023-12-13T04:24:39.816Z,4.00
2023-12-13T04:27:07.997Z,4.00
2023-12-13T04:29:35.931Z,4.10
2023-12-13T04:32:03.854Z,4.10
2023-12-13T04:34:32.325Z,4.10
2023-12-13T04:37:00.376Z,4.00
2023-12-13T04:39:28.334Z,4.00
2023-12-13T04:41:56.034Z,4.00
2023-12-13T04:44:29.224Z,4.00
2023-12-13T04:46:57.488Z,4.00
2023-12-13T04:49:26.381Z,4.00
2023-12-13T04:51:54.125Z,4.00
2023-12-13T04:54:22.293Z,4.00
2023-12-13T04:56:50.309Z,4.00
2023-12-13T04:59:18.516Z,4.00
2023-12-13T05:01:46.359Z,4.00
2023-12-13T05:04:14.523Z,4.00
2023-12-13T05:06:42.273Z,4.00
2023-12-13T05:09:10.328Z,4.00
2023-12-13T05:11:38.095Z,4.00
2023-12-13T05:14:06.202Z,4.00
2023-12-13T05:16:34.251Z,4.00
2023-12-13T05:19:02.625Z,4.00
2023-12-13T05:21:30.566Z,4.00
2023-12-13T05:23:58.652Z,4.00
2023-12-13T05:26:26.594Z,4.00
2023-12-13T05:28:54.885Z,4.00
2023-12-13T05:31:23.870Z,4.00
2023-12-13T05:33:52.705Z,4.00
2023-12-13T05:36:20.724Z,4.00
2023-12-13T05:38:48.672Z,4.10
2023-12-13T05:41:16.482Z,4.10
2023-12-13T05:43:44.696Z,4.10
2023-12-13T05:46:12.554Z,4.10
2023-12-13T05:48:40.834Z,4.20
2023-12-13T05:51:08.672Z,4.20
2023-12-13T05:53:36.847Z,4.30
2023-12-13T05:56:04.849Z,4.30
2023-12-13T05:58:32.860Z,4.40
2023-12-13T06:01:00.640Z,4.30
2023-12-13T06:03:28.825Z,4.30
2023-12-13T06:05:57.446Z,4.30
2023-12-13T06:08:25.906Z,4.30
2023-12-13T06:10:53.604Z,4.30
2023-12-13T06:13:21.762Z,4.40
2023-12-13T06:15:49.639Z,4.40
2023-12-13T06:18:17.986Z,4.40
2023-12-13T06:20:45.881Z,4.40
2023-12-13T06:23:14.079Z,4.40
2023-12-13T06:25:41.680Z,4.40
2023-12-13T06:28:09.950Z,4.30
2023-12-13T06:30:37.860Z,4.20
2023-12-13T06:33:06.217Z,4.10
2023-12-13T06:35:34.181Z,4.10
2023-12-13T06:38:02.189Z,4.10
2023-12-13T06:40:30.240Z,4.00
2023-12-13T06:42:58.497Z,4.00
2023-12-13T06:45:26.287Z,4.00
2023-12-13T06:47:54.466Z,4.00
2023-12-13T06:50:22.451Z,4.00
2023-12-13T06:52:51.039Z,4.00
2023-12-13T06:55:19.266Z,4.00
2023-12-13T06:57:47.394Z,4.00
2023-12-13T07:00:16.020Z,4.00
2023-12-13T07:02:44.423Z,3.90
2023-12-13T07:05:12.312Z,3.90
2023-12-13T07:07:40.620Z,3.90
2023-12-13T07:10:08.796Z,3.90
2023-12-13T07:12:37.230Z,3.90
2023-12-13T07:15:05.820Z,3.90
2023-12-13T07:17:34.168Z,3.90
2023-12-13T07:20:02.419Z,3.90
2023-12-13T07:22:30.593Z,3.90
2023-12-13T07:24:58.470Z,3.90
2023-12-13T07:27:26.755Z,3.90
2023-12-13T07:29:54.512Z,4.00
2023-12-13T07:32:22.562Z,4.00
2023-12-13T07:34:50.845Z,4.00
2023-12-13T07:37:19.541Z,4.00
2023-12-13T07:39:47.328Z,4.00
2023-12-13T07:42:15.591Z,4.10
2023-12-13T07:44:44.723Z,4.10
2023-12-13T07:47:13.615Z,4.20
2023-12-13T07:49:41.694Z,4.30
2023-12-13T07:52:10.136Z,4.30
2023-12-13T07:54:38.057Z,4.40
2023-12-13T07:57:06.677Z,4.40
2023-12-13T07:59:34.320Z,4.50
2023-12-13T08:02:03.349Z,4.50
2023-12-13T08:04:31.298Z,4.50
2023-12-13T08:06:59.559Z,4.50
2023-12-13T08:09:27.309Z,4.60
2023-12-13T08:11:55.652Z,4.70
2023-12-13T08:14:27.324Z,4.70
2023-12-13T08:16:55.713Z,4.70
2023-12-13T08:19:23.722Z,4.90
2023-12-13T08:21:53.273Z,5.00
2023-12-13T08:24:21.218Z,5.00
2023-12-13T08:26:49.202Z,5.20
2023-12-13T08:29:17.445Z,5.30
2023-12-13T08:31:46.580Z,5.30
2023-12-13T08:34:14.304Z,5.30
2023-12-13T08:36:42.464Z,5.30
2023-12-13T08:39:11.357Z,5.30
2023-12-13T08:41:39.376Z,5.30
2023-12-13T08:44:07.215Z,5.20
2023-12-13T08:46:35.246Z,5.20
2023-12-13T08:49:03.131Z,5.20
2023-12-13T08:51:31.436Z,5.10
2023-12-13T08:53:59.166Z,5.10
2023-12-13T08:56:27.333Z,5.00
2023-12-13T08:58:55.091Z,5.00
2023-12-13T09:01:25.997Z,5.00
2023-12-13T09:03:55.612Z,5.00
2023-12-13T09:06:23.865Z,5.00
2023-12-13T09:08:51.709Z,5.00
2023-12-13T09:11:20.276Z,5.00
2023-12-13T09:13:48.455Z,5.10
2023-12-13T09:16:18.258Z,5.20
2023-12-13T09:18:46.181Z,5.30
2023-12-13T09:21:15.574Z,5.40
2023-12-13T09:23:45.956Z,5.50
2023-12-13T09:26:15.518Z,5.50
2023-12-13T09:28:43.526Z,5.50
2023-12-13T09:31:13.767Z,5.60
2023-12-13T09:33:41.906Z,5.60
2023-12-13T09:36:10.882Z,5.60
2023-12-13T09:38:38.716Z,5.70
2023-12-13T09:41:07.330Z,5.70
2023-12-13T09:43:36.767Z,5.80
2023-12-13T09:46:08.240Z,5.80
2023-12-13T09:48:39.448Z,5.90
2023-12-13T09:51:11.462Z,6.00
2023-12-13T09:53:41.189Z,6.00
2023-12-13T09:56:10.561Z,6.20
2023-12-13T09:58:38.205Z,6.20
2023-12-13T10:01:15.804Z,6.30
2023-12-13T10:03:45.121Z,6.40
2023-12-13T10:06:13.443Z,6.50
2023-12-13T10:08:41.253Z,6.50
2023-12-13T10:11:12.553Z,6.60
2023-12-13T10:13:40.146Z,6.70
2023-12-13T10:16:11.221Z,6.60
2023-12-13T10:18:42.647Z,6.60
2023-12-13T10:21:12.352Z,6.70
2023-12-13T10:23:42.585Z,6.70
2023-12-13T10:26:11.608Z,6.80
2023-12-13T10:28:39.422Z,6.90
2023-12-13T10:31:08.935Z,6.90
2023-12-13T10:33:36.810Z,7.00
2023-12-13T10:36:06.341Z,7.10
2023-12-13T10:38:35.034Z,7.20
2023-12-13T10:41:03.916Z,7.20
2023-12-13T10:43:33.699Z,7.40
2023-12-13T10:46:03.421Z,7.40
2023-12-13T10:48:37.543Z,7.50
2023-12-13T10:51:06.786Z,7.50
2023-12-13T10:53:35.537Z,7.50
2023-12-13T10:56:06.148Z,7.60
2023-12-13T10:58:35.615Z,7.60
2023-12-13T11:01:05.575Z,7.70
2023-12-13T11:03:49.445Z,7.80
2023-12-13T11:06:18.464Z,8.00
2023-12-13T11:08:46.477Z,8.10
2023-12-13T11:11:17.668Z,8.20
2023-12-13T11:13:53.404Z,8.30
2023-12-13T11:16:24.138Z,8.40
2023-12-13T11:18:55.231Z,8.50
2023-12-13T11:21:28.065Z,8.80
2023-12-13T11:23:58.518Z,8.90
2023-12-13T11:26:28.802Z,8.80
2023-12-13T11:28:57.935Z,8.60
2023-12-13T11:31:27.195Z,8.50
2023-12-13T11:33:58.821Z,8.40
2023-12-13T11:36:27.371Z,8.40
2023-12-13T11:38:58.415Z,8.30
2023-12-13T11:41:26.594Z,8.30
2023-12-13T11:43:55.321Z,8.30
2023-12-13T11:46:23.498Z,8.40
2023-12-13T11:51:19.970Z,8.50
2023-12-13T11:53:50.947Z,8.50
2023-12-13T11:56:20.072Z,8.40
2023-12-13T11:58:51.148Z,8.40
2023-12-13T12:01:21.005Z,8.30
2023-12-13T12:03:48.921Z,8.20
2023-12-13T12:06:18.868Z,8.20
2023-12-13T12:08:47.275Z,8.30
2023-12-13T12:11:15.409Z,8.40
2023-12-13T12:13:44.800Z,8.50
2023-12-13T12:16:13.592Z,8.50
2023-12-13T12:18:43.276Z,8.40
2023-12-13T12:21:13.123Z,8.50
2023-12-13T12:23:42.751Z,8.60
2023-12-13T12:26:14.294Z,8.60
2023-12-13T12:28:42.630Z,8.90
2023-12-13T12:31:15.471Z,9.00
2023-12-13T12:33:45.803Z,9.10
2023-12-13T12:36:14.545Z,9.20
2023-12-13T12:38:42.714Z,9.30
2023-12-13T12:41:10.945Z,9.30
2023-12-13T12:43:38.896Z,9.20
2023-12-13T12:46:07.392Z,9.00
2023-12-13T12:48:35.511Z,9.00
2023-12-13T12:51:03.984Z,9.00
2023-12-13T12:53:31.987Z,8.90
2023-12-13T12:56:01.688Z,8.70
2023-12-13T12:58:32.659Z,8.60
2023-12-13T13:01:01.242Z,8.50
2023-12-13T13:03:29.552Z,8.50
2023-12-13T13:05:57.928Z,8.40
2023-12-13T13:08:27.392Z,8.40
2023-12-13T13:10:55.577Z,8.40
2023-12-13T13:13:23.932Z,8.40
2023-12-13T13:15:52.182Z,8.30
2023-12-13T13:18:20.154Z,8.30
2023-12-13T13:20:48.673Z,8.30
2023-12-13T13:23:16.622Z,8.30
2023-12-13T13:25:45.067Z,8.20
2023-12-13T13:28:12.854Z,8.30
2023-12-13T13:30:41.270Z,8.30
2023-12-13T13:33:11.073Z,8.30
2023-12-13T13:35:39.176Z,8.40
2023-12-13T13:38:07.222Z,8.40
2023-12-13T13:40:35.385Z,8.40
2023-12-13T13:43:03.490Z,8.40
2023-12-13T13:45:31.707Z,8.40
2023-12-13T13:47:59.653Z,8.40
2023-12-13T13:50:28.632Z,8.40
2023-12-13T13:52:56.690Z,8.30
2023-12-13T13:55:25.801Z,8.30
2023-12-13T13:57:53.619Z,8.20
2023-12-13T14:00:22.581Z,8.20
2023-12-13T14:02:50.469Z,8.20
2023-12-13T14:05:19.050Z,8.30
2023-12-13T14:07:47.087Z,8.30
2023-12-13T14:10:15.631Z,8.20
2023-12-13T14:12:43.162Z,8.20
2023-12-13T14:15:12.703Z,8.20
2023-12-13T14:17:40.918Z,8.10
2023-12-13T14:20:12.340Z,8.10
2023-12-13T14:22:40.828Z,8.10
2023-12-13T14:25:10.209Z,8.20
2023-12-13T14:27:37.968Z,8.20
2023-12-13T14:30:07.318Z,8.30
2023-12-13T14:32:35.214Z,8.30
2023-12-13T14:35:07.452Z,8.20
2023-12-13T14:37:40.445Z,8.20
2023-12-13T14:40:12.871Z,8.20
2023-12-13T14:42:41.521Z,8.20
2023-12-13T14:45:11.163Z,8.20
2023-12-13T14:47:39.869Z,8.20
2023-12-13T14:50:10.187Z,8.10
2023-12-13T14:52:38.723Z,8.10
2023-12-13T14:55:09.478Z,8.10
2023-12-13T14:57:38.632Z,8.00
2023-12-13T15:00:13.494Z,8.00
2023-12-13T15:02:43.595Z,8.00
2023-12-13T15:05:14.695Z,7.90
2023-12-13T15:07:43.954Z,7.90
2023-12-13T15:10:15.395Z,7.80
2023-12-13T15:12:43.408Z,7.90
2023-12-13T15:15:11.778Z,7.90
2023-12-13T15:17:40.238Z,7.80
2023-12-13T15:20:12.163Z,7.80
2023-12-13T15:22:39.958Z,7.80
2023-12-13T15:25:13.473Z,7.80
2023-12-13T15:27:44.344Z,7.80
2023-12-13T15:30:13.464Z,7.80
2023-12-13T15:32:45.824Z,7.80
2023-12-13T15:35:14.539Z,7.60
2023-12-13T15:37:42.474Z,7.60
2023-12-13T15:40:11.430Z,7.60
2023-12-13T15:42:39.167Z,7.50
2023-12-13T15:45:09.137Z,7.50
2023-12-13T15:47:38.143Z,7.50
2023-12-13T15:50:09.223Z,7.50
2023-12-13T15:52:42.430Z,7.60
2023-12-13T15:55:11.193Z,7.60
2023-12-13T15:57:39.668Z,7.60
2023-12-13T16:00:08.629Z,7.60
2023-12-13T16:02:42.608Z,7.60
2023-12-13T16:05:12.387Z,7.60
2023-12-13T16:07:44.556Z,7.60
2023-12-13T16:10:15.352Z,7.60
2023-12-13T16:12:43.928Z,7.60
2023-12-13T16:15:12.926Z,7.70
2023-12-13T16:17:41.117Z,7.60
2023-12-13T16:20:10.477Z,7.60
2023-12-13T16:22:39.155Z,7.60
2023-12-13T16:25:08.005Z,7.60
2023-12-13T16:27:36.106Z,7.60
2023-12-13T16:30:04.456Z,7.60
2023-12-13T16:32:32.829Z,7.50
2023-12-13T16:35:01.342Z,7.50
2023-12-13T16:37:39.980Z,7.50
2023-12-13T16:40:12.656Z,7.40
2023-12-13T16:42:40.995Z,7.40
2023-12-13T16:45:09.562Z,7.40
2023-12-13T16:47:37.633Z,7.30
2023-12-13T16:50:09.098Z,7.20
2023-12-13T16:52:37.605Z,7.20
2023-12-13T16:55:06.515Z,7.20
2023-12-13T16:57:34.856Z,7.20
2023-12-13T17:00:03.568Z,7.20
2023-12-13T17:02:43.253Z,7.20
2023-12-13T17:05:16.295Z,7.20
2023-12-13T17:07:45.779Z,7.20
2023-12-13T17:10:14.977Z,7.20
2023-12-13T17:12:43.110Z,7.20
2023-12-13T17:15:12.679Z,7.10
2023-12-13T17:17:40.491Z,7.10
2023-12-13T17:20:09.172Z,7.10
2023-12-13T17:22:37.309Z,7.00
2023-12-13T17:25:07.848Z,7.00
2023-12-13T17:27:36.314Z,7.00
2023-12-13T17:30:05.247Z,7.00
2023-12-13T17:32:33.385Z,7.00
2023-12-13T17:35:02.229Z,7.00
2023-12-13T17:37:30.343Z,7.00
2023-12-13T17:39:58.452Z,7.00
2023-12-13T17:42:29.916Z,7.00
2023-12-13T17:44:58.726Z,7.00
2023-12-13T17:47:27.161Z,7.00
2023-12-13T17:49:55.933Z,7.10
2023-12-13T17:52:24.018Z,7.10
2023-12-13T17:54:52.213Z,7.10
2023-12-13T17:57:20.075Z,7.10
2023-12-13T17:59:48.981Z,7.10
2023-12-13T18:02:19.097Z,7.10
2023-12-13T18:04:47.784Z,7.00
2023-12-13T18:07:16.127Z,7.10
2023-12-13T18:09:45.016Z,7.00
2023-12-13T18:12:12.815Z,7.00
2023-12-13T18:14:41.435Z,7.00
2023-12-13T18:17:09.184Z,7.00
2023-12-13T18:19:37.942Z,7.00
2023-12-13T18:22:05.988Z,7.00
2023-12-13T18:24:34.855Z,7.00
2023-12-13T18:27:02.866Z,7.00
2023-12-13T18:29:32.698Z,7.00
2023-12-13T18:32:04.177Z,7.00
2023-12-13T18:34:33.268Z,7.00
2023-12-13T18:37:02.062Z,7.00
2023-12-13T18:39:30.469Z,7.00
2023-12-13T18:41:58.921Z,7.00
2023-12-13T18:44:27.447Z,7.00
2023-12-13T18:46:56.576Z,7.00
2023-12-13T18:49:30.151Z,7.00
2023-12-13T18:51:58.628Z,6.90
2023-12-13T18:54:29.619Z,6.90
2023-12-13T18:56:57.993Z,6.90
2023-12-13T18:59:26.740Z,6.90
2023-12-13T19:01:55.543Z,6.90
2023-12-13T19:04:24.744Z,6.90
2023-12-13T19:06:53.283Z,6.90
2023-12-13T19:09:22.904Z,6.90
2023-12-13T19:11:51.687Z,6.90
2023-12-13T19:14:20.305Z,6.90
2023-12-13T19:16:50.051Z,6.90
2023-12-13T19:19:22.920Z,6.80
2023-12-13T19:21:52.012Z,6.80
2023-12-13T19:24:21.531Z,6.70
2023-12-13T19:26:50.197Z,6.70
2023-12-13T19:29:23.590Z,6.70
2023-12-13T19:31:52.529Z,6.70
2023-12-13T19:34:30.927Z,6.70
2023-12-13T19:37:10.357Z,6.70
2023-12-13T19:39:39.877Z,6.70
2023-12-13T19:42:13.726Z,6.70
2023-12-13T19:44:43.309Z,6.70
2023-12-13T19:47:14.435Z,6.70
2023-12-13T19:49:43.795Z,6.60
2023-12-13T19:52:12.848Z,6.60
2023-12-13T19:54:43.744Z,6.60
2023-12-13T19:57:12.690Z,6.60
2023-12-13T19:59:41.894Z,6.60
2023-12-13T20:02:13.254Z,6.50
2023-12-13T20:04:43.632Z,6.50
2023-12-13T20:07:13.368Z,6.60
2023-12-13T20:09:42.633Z,6.60
2023-12-13T20:12:12.822Z,6.60
2023-12-13T20:14:42.925Z,6.60
2023-12-13T20:17:12.631Z,6.60
2023-12-13T20:19:42.034Z,6.50
2023-12-13T20:22:11.500Z,6.50
2023-12-13T20:24:40.935Z,6.50
2023-12-13T20:27:10.144Z,6.50
2023-12-13T20:29:39.636Z,6.40
2023-12-13T20:32:10.854Z,6.50
2023-12-13T20:34:41.975Z,6.50
2023-12-13T20:37:11.222Z,6.40
2023-12-13T20:39:41.839Z,6.40
2023-12-13T20:42:12.185Z,6.30
2023-12-13T20:44:41.340Z,6.30
2023-12-13T20:47:10.393Z,6.30
2023-12-13T20:49:40.088Z,6.30
2023-12-13T20:52:08.873Z,6.30
2023-12-13T20:54:37.920Z,6.30
2023-12-13T20:57:06.932Z,6.30
2023-12-13T20:59:38.266Z,6.30
2023-12-13T21:02:06.236Z,6.30
2023-12-13T21:04:34.718Z,6.30
2023-12-13T21:07:02.525Z,6.30
2023-12-13T21:09:30.793Z,6.30
2023-12-13T21:11:58.485Z,6.40
2023-12-13T21:14:26.610Z,6.40
2023-12-13T21:16:54.695Z,6.50
2023-12-13T21:19:23.013Z,6.50
2023-12-13T21:21:51.155Z,6.60
2023-12-13T21:24:19.429Z,6.60
2023-12-13T21:26:47.376Z,6.60
2023-12-13T21:29:15.662Z,6.60
2023-12-13T21:31:44.612Z,6.70
2023-12-13T21:34:12.818Z,6.70
2023-12-13T21:36:47.811Z,6.70
2023-12-13T21:39:15.986Z,6.70
2023-12-13T21:41:43.771Z,6.70
2023-12-13T21:44:12.561Z,6.60
2023-12-13T21:46:40.389Z,6.60
2023-12-13T21:49:08.579Z,6.60
2023-12-13T21:51:36.705Z,6.50
2023-12-13T21:54:04.924Z,6.50
2023-12-13T21:56:32.738Z,6.50
2023-12-13T21:59:01.811Z,6.60
2023-12-13T22:01:29.818Z,6.60
2023-12-13T22:04:01.300Z,6.60
2023-12-13T22:06:30.001Z,6.60
2023-12-13T22:08:58.287Z,6.60
2023-12-13T22:11:26.429Z,6.70
2023-12-13T22:13:54.588Z,6.70
2023-12-13T22:16:23.743Z,6.80
2023-12-13T22:19:12.037Z,6.90
2023-12-13T22:21:39.893Z,6.90
2023-12-13T22:24:08.285Z,6.90
2023-12-13T22:26:36.302Z,6.80
2023-12-13T22:29:04.373Z,6.80
2023-12-13T22:31:32.131Z,6.70
2023-12-13T22:34:00.593Z,6.70
2023-12-13T22:36:28.441Z,6.70
2023-12-13T22:38:56.501Z,6.70
2023-12-13T22:41:24.377Z,6.70
2023-12-13T22:43:52.686Z,6.70
2023-12-13T22:46:20.339Z,6.80
2023-12-13T22:48:48.435Z,6.80
2023-12-13T22:51:16.402Z,6.70
2023-12-13T22:53:44.460Z,6.70
2023-12-13T22:56:12.122Z,6.70
2023-12-13T22:58:40.346Z,6.60
2023-12-13T23:01:08.963Z,6.60
2023-12-13T23:03:41.315Z,6.50
2023-12-13T23:06:09.712Z,6.50
2023-12-13T23:08:37.983Z,6.50
2023-12-13T23:11:06.843Z,6.60
2023-12-13T23:13:35.005Z,6.60
2023-12-13T23:16:02.752Z,6.70
2023-12-13T23:18:30.998Z,6.80
2023-12-13T23:20:58.799Z,6.80
2023-12-13T23:23:27.786Z,6.80
2023-12-13T23:25:56.064Z,6.80
2023-12-13T23:28:24.291Z,6.80
2023-12-13T23:30:52.074Z,6.80
2023-12-13T23:33:19.990Z,6.80
2023-12-13T23:35:47.915Z,6.80
2023-12-13T23:38:16.128Z,6.70
2023-12-13T23:40:43.817Z,6.70
2023-12-13T23:43:11.865Z,6.70
2023-12-13T23:45:39.403Z,6.70
2023-12-13T23:48:07.478Z,6.80
2023-12-13T23:50:35.128Z,6.90
2023-12-13T23:53:03.244Z,6.90
2023-12-13T23:55:31.221Z,6.80
2023-12-13T23:57:59.290Z,6.90
